Terminal Aerodrome Forecast
Issued by NWS

Home | Current Version | Previous Version | Text Only | Print | Product List | Glossary On
Versions: 1 2 3 4 5 6 7 8 9 10 11 12 13 14 15 16 17 18 19 20
162
FTUS43 KDLH 141720
TAFBRD
TAF
KBRD 141720Z 1418/1518 19013KT 2SM -SN OVC025
     FM141900 19012KT 1SM -SN OVC025
     FM142300 27005KT 2SM -SN BKN025 OVC035
     FM150100 30006KT 4SM -SN SCT025 OVC030
     FM150300 33010KT P6SM -SN SCT030 OVC050
     FM151000 33012G20KT P6SM BKN030=

USA.gov is the U.S. government's official web portal to all federal, state and local government web resources and services.